Grand Prairie, TX

3:08 PM CST on November 23, 2014 (GMT -0600)
Arlington Municipal | Change Station
CLOSE
Current Station
Airport
Location: Arlington,
Elevation: 630 ft
Nearby Weather Stations
Active Advisory: Wind Advisory Active Notice: Public Information Statement

Elev 630 ft 32.66 °N, 97.10 °W | Updated 15 minutes ago

Clear
Clear
79 °F
Feels Like 79 °F
N
16
Wind Variable Wind from West
Gusts 28 mph

Today
High -- | Low -- °F
--% Chance of Precip.
Yesterday
High -- | Low -- °F
Precip. -- in
7:05 AM 5:23 PM
New Moon, 2% visible
Pressure 29.39 in
Visibility 10.0 miles
Clouds
Dew Point 31 °F
Humidity 17%
Rainfall 0.00 in
Snow Depth Not available.
UV Not available.
Pollen 3.70 out of 12
Air Quality Not available.
Flu Activity Not available.
METAR KGKY 232053Z 26014G24KT 10SM 26/M01 A2941 RMK AO2 PK WND 25027/2042 SLP951 T02611006 55013 $

More Conditions Fewer Conditions

Pressure 29.39 in
Visibility 10.0 miles
Clouds
Dew Point 31 °F
Humidity 17%
Rainfall 0.00 in
Snow Depth Not available.
UV Not available.
Pollen 3.70 out of 12
Air Quality Not available.
Flu Activity Not available.
METAR KGKY 232053Z 26014G24KT 10SM 26/M01 A2941 RMK AO2 PK WND 25027/2042 SLP951 T02611006 55013 $

More Conditions Fewer Conditions

10-Day Weather Forecast

Almanac

Astronomy

Nov. 23, 2014 Rise Set
Actual Time
Civil Twilight
Nautical Twilight
Astronomical Twilight
Moon
Length of Visible Light
Length of Day
Tomorrow will be .
, % of the Moon is Illuminated

Today's Extremes

State Highs State Lows

Community

WunderPhotos

Upload Photos

1,773,176 photos uploaded!

WunderBlogs® & News

Nearby

Air Quality

  Air Quality AQ Index Pollutant
Not available.

Snow Depth

Station Depth Elevation

Earthquake Activity

City Distance Mag. Time & Date
Minimum magnitude displayed is 2.5.

Coastal Water Temperatures

Place Temperature

Nearby Weather Stations